createdAt,value
2022-08-23T00:01:26.231Z,83.25
2022-08-23T00:03:58.968Z,83.20
2022-08-23T00:06:28.488Z,83.60
2022-08-23T00:08:56.716Z,83.64
2022-08-23T00:11:48.101Z,83.20
2022-08-23T00:14:21.709Z,84.31
2022-08-23T00:16:50.338Z,83.15
2022-08-23T00:19:18.578Z,82.44
2022-08-23T00:21:47.131Z,82.77
2022-08-23T00:24:15.617Z,83.54
2022-08-23T00:26:59.036Z,83.73
2022-08-23T00:29:31.190Z,84.87
2022-08-23T00:32:00.113Z,85.38
2022-08-23T00:34:29.491Z,85.43
2022-08-23T00:36:57.964Z,85.67
2022-08-23T00:39:27.661Z,86.03
2022-08-23T00:41:59.239Z,87.53
2022-08-23T00:44:53.040Z,87.27
2022-08-23T00:47:40.055Z,87.59
2022-08-23T00:50:39.861Z,88.10
2022-08-23T00:53:33.209Z,90.81
2022-08-23T00:56:04.870Z,90.85
2022-08-23T00:58:33.616Z,88.84
2022-08-23T01:01:02.215Z,88.33
2022-08-23T01:03:38.597Z,88.03
2022-08-23T01:06:41.825Z,86.60
2022-08-23T01:09:13.433Z,84.84
2022-08-23T01:11:57.996Z,85.74
2022-08-23T01:14:44.595Z,85.45
2022-08-23T01:17:27.219Z,85.53
2022-08-23T01:20:02.966Z,84.36
2022-08-23T01:22:52.543Z,85.32
2022-08-23T01:25:22.878Z,83.94
2022-08-23T01:27:50.984Z,84.97
2022-08-23T01:30:22.280Z,85.66
2022-08-23T01:33:02.563Z,86.16
2022-08-23T01:35:40.105Z,86.47
2022-08-23T01:38:09.209Z,86.16
2022-08-23T01:40:37.498Z,85.96
2022-08-23T01:43:05.943Z,85.04
2022-08-23T01:45:34.725Z,84.83
2022-08-23T01:48:02.987Z,85.46
2022-08-23T01:50:31.204Z,85.41
2022-08-23T01:52:59.803Z,86.31
2022-08-23T01:55:28.473Z,86.40
2022-08-23T01:57:58.239Z,86.14
2022-08-23T02:00:30.229Z,86.34
2022-08-23T02:02:59.301Z,86.18
2022-08-23T02:05:27.675Z,85.31
2022-08-23T02:07:55.925Z,84.95
2022-08-23T02:10:24.212Z,85.28
2022-08-23T02:12:52.385Z,85.94
2022-08-23T02:15:20.766Z,86.54
2022-08-23T02:17:48.795Z,87.99
2022-08-23T02:20:17.339Z,88.77
2022-08-23T02:22:46.039Z,88.34
2022-08-23T02:25:14.512Z,88.83
2022-08-23T02:27:44.237Z,88.34
2022-08-23T02:30:12.907Z,89.97
2022-08-23T02:32:41.697Z,89.38
2022-08-23T02:35:10.265Z,89.79
2022-08-23T02:37:38.353Z,89.85
2022-08-23T02:40:07.579Z,90.73
2022-08-23T02:42:35.605Z,90.75
2022-08-23T02:45:03.589Z,91.54
2022-08-23T02:47:32.587Z,90.64
2022-08-23T02:50:00.801Z,91.75
2022-08-23T02:52:29.309Z,91.26
2022-08-23T02:54:58.372Z,92.01
2022-08-23T02:57:27.099Z,92.42
2022-08-23T02:59:59.218Z,93.24
2022-08-23T03:02:27.850Z,92.82
2022-08-23T03:04:56.175Z,93.78
2022-08-23T03:07:24.448Z,93.47
2022-08-23T03:09:52.817Z,93.66
2022-08-23T03:12:21.093Z,94.18
2022-08-23T03:14:49.664Z,94.02
2022-08-23T03:17:17.986Z,94.19
2022-08-23T03:19:46.206Z,94.25
2022-08-23T03:22:14.201Z,94.18
2022-08-23T03:24:42.198Z,94.33
2022-08-23T03:27:10.513Z,94.33
2022-08-23T03:29:38.640Z,94.72
2022-08-23T03:32:07.149Z,95.08
2022-08-23T03:34:36.108Z,95.15
2022-08-23T03:37:04.345Z,95.93
2022-08-23T03:39:32.840Z,95.79
2022-08-23T03:42:00.932Z,96.34
2022-08-23T03:44:29.190Z,96.13
2022-08-23T03:46:57.247Z,97.23
2022-08-23T03:49:25.238Z,96.77
2022-08-23T03:51:53.564Z,96.78
2022-08-23T03:54:22.729Z,96.82
2022-08-23T03:56:54.345Z,96.53
2022-08-23T03:59:22.706Z,96.91
2022-08-23T04:01:51.271Z,96.82
2022-08-23T04:04:21.189Z,96.58
2022-08-23T04:06:49.397Z,96.76
2022-08-23T04:09:18.577Z,96.74
2022-08-23T04:11:47.404Z,97.11
2022-08-23T04:14:15.789Z,97.59
2022-08-23T04:16:44.381Z,97.06
2022-08-23T04:19:14.507Z,97.70
2022-08-23T04:21:44.701Z,98.48
2022-08-23T04:24:13.053Z,98.50
2022-08-23T04:26:41.549Z,98.71
2022-08-23T04:29:12.866Z,98.93
2022-08-23T04:31:53.847Z,99.11
2022-08-23T04:34:23.143Z,99.20
2022-08-23T04:36:57.719Z,99.21
2022-08-23T04:39:25.738Z,99.46
2022-08-23T04:42:14.928Z,99.37
2022-08-23T04:44:43.333Z,99.83
2022-08-23T04:47:11.347Z,100.00
2022-08-23T04:49:39.590Z,100.00
2022-08-23T04:52:07.797Z,100.00
2022-08-23T04:54:35.920Z,100.00
2022-08-23T04:57:04.203Z,100.00
2022-08-23T04:59:32.306Z,100.00
2022-08-23T05:02:00.350Z,100.00
2022-08-23T05:04:28.401Z,100.00
2022-08-23T05:06:56.277Z,100.00
2022-08-23T05:09:26.228Z,100.00
2022-08-23T05:11:54.455Z,100.00
2022-08-23T05:14:23.436Z,100.00
2022-08-23T05:16:51.352Z,100.00
2022-08-23T05:19:19.639Z,100.00
2022-08-23T05:21:47.775Z,100.00
2022-08-23T05:24:15.799Z,100.00
2022-08-23T05:26:43.901Z,100.00
2022-08-23T05:29:12.046Z,100.00
2022-08-23T05:31:40.491Z,100.00
2022-08-23T05:34:08.649Z,100.00
2022-08-23T05:36:37.122Z,100.00
2022-08-23T05:39:07.130Z,100.00
2022-08-23T05:41:38.409Z,100.00
2022-08-23T05:44:07.405Z,100.00
2022-08-23T05:46:36.265Z,100.00
2022-08-23T05:49:04.599Z,99.70
2022-08-23T05:51:34.430Z,99.07
2022-08-23T05:54:07.544Z,98.31
2022-08-23T05:56:37.351Z,98.25
2022-08-23T05:59:12.529Z,97.95
2022-08-23T06:01:41.332Z,95.57
2022-08-23T06:04:11.136Z,95.03
2022-08-23T06:06:39.479Z,95.37
2022-08-23T06:09:09.127Z,94.97
2022-08-23T06:11:38.454Z,94.98
2022-08-23T06:14:08.057Z,95.03
2022-08-23T06:16:44.781Z,94.87
2022-08-23T06:19:13.178Z,95.10
2022-08-23T06:21:41.927Z,94.83
2022-08-23T06:24:10.415Z,94.15
2022-08-23T06:26:41.351Z,93.81
2022-08-23T06:29:11.751Z,93.08
2022-08-23T06:31:46.841Z,92.36
2022-08-23T06:34:19.964Z,91.79
2022-08-23T06:36:49.858Z,90.52
2022-08-23T06:39:18.612Z,91.50
2022-08-23T06:41:46.949Z,90.47
2022-08-23T06:44:15.042Z,90.54
2022-08-23T06:46:43.591Z,90.48
2022-08-23T06:49:12.350Z,89.57
2022-08-23T06:51:45.277Z,89.44
2022-08-23T06:54:16.440Z,88.52
2022-08-23T06:56:45.483Z,86.46
2022-08-23T06:59:14.115Z,87.09
2022-08-23T07:01:48.269Z,85.64
2022-08-23T07:04:20.876Z,85.27
2022-08-23T07:06:49.481Z,85.78
2022-08-23T07:09:17.593Z,86.20
2022-08-23T07:11:46.477Z,86.96
2022-08-23T07:14:16.278Z,86.82
2022-08-23T07:16:52.793Z,86.75
2022-08-23T07:19:22.420Z,87.43
2022-08-23T07:21:57.921Z,86.82
2022-08-23T07:24:29.440Z,85.19
2022-08-23T07:27:02.573Z,84.91
2022-08-23T07:29:31.362Z,84.15
2022-08-23T07:32:00.296Z,84.64
2022-08-23T07:34:29.207Z,84.10
2022-08-23T07:36:57.774Z,82.97
2022-08-23T07:39:27.790Z,82.38
2022-08-23T07:41:56.277Z,81.97
2022-08-23T07:44:27.162Z,80.79
2022-08-23T07:46:56.203Z,81.44
2022-08-23T07:49:29.301Z,80.88
2022-08-23T07:51:59.944Z,80.30
2022-08-23T07:54:29.627Z,79.54
2022-08-23T07:56:58.046Z,78.25
2022-08-23T07:59:29.442Z,78.29
2022-08-23T08:02:01.954Z,76.10
2022-08-23T08:04:30.260Z,75.20
2022-08-23T08:07:18.269Z,75.25
2022-08-23T08:09:48.487Z,74.03
2022-08-23T08:12:16.707Z,72.67
2022-08-23T08:14:45.122Z,71.70
2022-08-23T08:17:13.573Z,71.56
2022-08-23T08:19:43.893Z,70.58
2022-08-23T08:22:14.295Z,68.15
2022-08-23T08:24:42.703Z,69.08
2022-08-23T08:27:13.318Z,69.70
2022-08-23T08:29:43.200Z,69.48
2022-08-23T08:32:14.032Z,67.38
2022-08-23T08:34:43.192Z,67.22
2022-08-23T08:37:11.960Z,66.48
2022-08-23T08:39:46.799Z,67.52
2022-08-23T08:42:46.085Z,68.12
2022-08-23T08:45:18.068Z,62.71
2022-08-23T08:47:52.027Z,64.05
2022-08-23T08:50:34.255Z,63.09
2022-08-23T08:53:04.964Z,64.30
2022-08-23T08:55:44.919Z,64.26
2022-08-23T08:58:18.493Z,62.65
2022-08-23T09:00:50.675Z,61.49
2022-08-23T09:03:24.078Z,61.96
2022-08-23T09:06:19.701Z,60.60
2022-08-23T09:09:29.885Z,61.21
2022-08-23T09:12:12.264Z,60.79
2022-08-23T09:15:00.068Z,58.89
2022-08-23T09:17:48.544Z,60.20
2022-08-23T09:20:17.818Z,56.53
2022-08-23T09:22:49.803Z,58.40
2022-08-23T09:25:18.206Z,58.61
2022-08-23T09:27:46.262Z,59.90
2022-08-23T09:30:15.695Z,57.82
2022-08-23T09:32:45.574Z,58.08
2022-08-23T09:35:25.583Z,56.66
2022-08-23T09:38:00.520Z,54.80
2022-08-23T09:40:38.853Z,54.29
2022-08-23T09:43:16.260Z,54.75
2022-08-23T09:45:55.593Z,53.51
2022-08-23T09:48:34.922Z,50.87
2022-08-23T09:51:27.076Z,52.13
2022-08-23T09:54:14.329Z,47.81
2022-08-23T09:56:46.135Z,51.23
2022-08-23T09:59:26.745Z,51.24
2022-08-23T10:02:02.308Z,48.05
2022-08-23T10:04:30.797Z,47.90
2022-08-23T10:06:59.822Z,48.69
2022-08-23T10:09:32.607Z,47.07
2022-08-23T10:12:03.685Z,46.67
2022-08-23T10:14:36.480Z,46.38
2022-08-23T10:17:09.642Z,46.78
2022-08-23T10:20:18.033Z,45.95
2022-08-23T10:23:07.865Z,46.92
2022-08-23T10:25:48.441Z,43.56
2022-08-23T10:29:13.255Z,43.10
2022-08-23T10:32:00.236Z,41.89
2022-08-23T10:34:35.274Z,45.08
2022-08-23T10:37:21.394Z,43.39
2022-08-23T10:40:07.136Z,41.97
2022-08-23T10:43:17.000Z,40.26
2022-08-23T10:45:45.812Z,43.61
2022-08-23T10:48:31.403Z,42.78
2022-08-23T10:51:03.432Z,41.16
2022-08-23T10:53:49.540Z,39.10
2022-08-23T10:56:22.470Z,36.54
2022-08-23T10:59:15.977Z,36.62
2022-08-23T11:02:11.973Z,35.92
2022-08-23T11:04:49.739Z,34.85
2022-08-23T11:07:21.870Z,37.38
2022-08-23T11:10:05.182Z,33.10
2022-08-23T11:12:38.672Z,32.54
2022-08-23T11:15:12.562Z,31.70
2022-08-23T11:17:57.303Z,31.36
2022-08-23T11:20:51.589Z,31.41
2022-08-23T11:23:43.434Z,29.43
2022-08-23T11:26:42.773Z,29.20
2022-08-23T11:29:12.293Z,25.95
2022-08-23T11:31:44.310Z,29.39
2022-08-23T11:34:29.929Z,28.39
2022-08-23T11:37:19.785Z,28.42
2022-08-23T11:40:00.588Z,26.09
2022-08-23T11:42:48.918Z,27.23
2022-08-23T11:45:29.252Z,27.63
2022-08-23T11:48:20.975Z,28.67
2022-08-23T11:51:04.535Z,28.53
2022-08-23T11:53:44.261Z,29.13
2022-08-23T11:57:07.770Z,30.68
2022-08-23T11:59:49.264Z,31.66
2022-08-23T12:02:39.374Z,34.31
2022-08-23T12:05:22.168Z,31.54
2022-08-23T12:08:05.776Z,31.68
2022-08-23T12:10:43.094Z,30.52
2022-08-23T12:13:23.384Z,30.80
2022-08-23T12:16:17.021Z,31.13
2022-08-23T12:18:48.508Z,31.59
2022-08-23T12:21:30.682Z,32.69
2022-08-23T12:24:01.521Z,32.19
2022-08-23T12:26:45.848Z,32.33
2022-08-23T12:29:43.615Z,32.71
2022-08-23T12:32:23.884Z,32.66
2022-08-23T12:35:18.316Z,32.25
2022-08-23T12:37:51.959Z,33.94
2022-08-23T12:40:29.693Z,33.36
2022-08-23T12:43:06.034Z,31.98
2022-08-23T12:45:39.668Z,33.47
2022-08-23T12:48:10.378Z,32.89
2022-08-23T12:50:41.365Z,33.06
2022-08-23T12:53:15.221Z,33.84
2022-08-23T12:56:09.910Z,35.38
2022-08-23T12:58:39.705Z,33.69
2022-08-23T13:01:20.864Z,36.12
2022-08-23T13:03:51.258Z,34.84
2022-08-23T13:06:25.479Z,34.24
2022-08-23T13:09:05.502Z,33.63
2022-08-23T13:11:36.755Z,33.09
2022-08-23T13:14:31.096Z,33.98
2022-08-23T13:17:13.160Z,34.30
2022-08-23T13:19:41.752Z,34.12
2022-08-23T13:22:31.055Z,33.87
2022-08-23T13:27:59.703Z,32.18
2022-08-23T13:30:32.930Z,32.51
2022-08-23T13:33:28.819Z,32.47
2022-08-23T13:36:18.258Z,33.37
2022-08-23T13:38:49.981Z,31.89
2022-08-23T13:41:38.547Z,32.38
2022-08-23T13:44:08.391Z,31.80
2022-08-23T13:46:39.444Z,33.02
2022-08-23T13:49:28.551Z,34.52
2022-08-23T13:52:33.472Z,32.86
2022-08-23T13:54:53.122Z,31.26
2022-08-23T13:57:21.597Z,32.06
2022-08-23T13:59:57.869Z,31.20
2022-08-23T14:02:26.268Z,31.63
2022-08-23T14:04:54.644Z,31.80
2022-08-23T14:07:22.624Z,32.50
2022-08-23T14:09:54.834Z,32.64
2022-08-23T14:12:24.317Z,32.05
2022-08-23T14:14:56.256Z,33.43
2022-08-23T14:17:24.985Z,32.37
2022-08-23T14:22:42.074Z,31.78
2022-08-23T14:25:10.658Z,31.52
2022-08-23T14:27:42.848Z,31.80
2022-08-23T14:30:12.885Z,31.94
2022-08-23T14:32:41.976Z,32.43
2022-08-23T14:35:11.305Z,33.79
2022-08-23T14:40:28.193Z,32.88
2022-08-23T14:42:56.455Z,32.99
2022-08-23T14:45:25.942Z,33.14
2022-08-23T14:47:54.455Z,32.83
2022-08-23T14:50:22.840Z,33.65
2022-08-23T14:52:50.721Z,33.57
2022-08-23T14:55:23.139Z,33.62
2022-08-23T14:57:55.069Z,34.01
2022-08-23T15:00:23.705Z,34.95
2022-08-23T15:02:51.851Z,34.34
2022-08-23T15:05:20.121Z,33.94
2022-08-23T15:07:48.472Z,34.73
2022-08-23T15:13:28.354Z,34.42
2022-08-23T15:15:54.250Z,34.44
2022-08-23T15:18:24.383Z,34.35
2022-08-23T15:20:52.693Z,34.07
2022-08-23T15:23:21.153Z,33.89
2022-08-23T15:25:49.920Z,33.66
2022-08-23T15:28:19.459Z,34.32
2022-08-23T15:30:48.271Z,34.50
2022-08-23T15:33:16.808Z,34.43
2022-08-23T15:35:47.063Z,34.47
2022-08-23T15:38:16.417Z,34.17
2022-08-23T15:40:45.316Z,34.45
2022-08-23T15:43:14.251Z,34.34
2022-08-23T15:45:43.542Z,34.63
2022-08-23T15:48:29.681Z,34.27
2022-08-23T15:50:58.365Z,32.93
2022-08-23T15:53:28.714Z,33.92
2022-08-23T15:55:56.858Z,34.16
2022-08-23T15:58:28.516Z,34.53
2022-08-23T16:00:56.603Z,34.28
2022-08-23T16:03:26.057Z,34.33
2022-08-23T16:05:55.097Z,34.27
2022-08-23T16:08:26.537Z,34.30
2022-08-23T16:10:55.106Z,34.75
2022-08-23T16:13:23.526Z,34.27
2022-08-23T16:15:52.086Z,33.96
2022-08-23T16:18:21.093Z,33.82
2022-08-23T16:20:49.470Z,33.68
2022-08-23T16:23:22.780Z,33.39
2022-08-23T16:25:52.783Z,33.84
2022-08-23T16:28:21.099Z,34.34
2022-08-23T16:30:49.666Z,34.02
2022-08-23T16:33:17.937Z,34.03
2022-08-23T16:35:46.137Z,34.27
2022-08-23T16:38:14.183Z,34.46
2022-08-23T16:40:42.323Z,34.42
2022-08-23T16:43:10.665Z,34.38
2022-08-23T16:45:38.921Z,34.64
2022-08-23T16:48:08.912Z,35.37
2022-08-23T16:50:38.918Z,35.14
2022-08-23T16:53:07.521Z,34.76
2022-08-23T16:55:36.670Z,34.33
2022-08-23T16:58:05.579Z,34.19
2022-08-23T17:00:37.169Z,34.49
2022-08-23T17:03:05.953Z,34.73
2022-08-23T17:05:35.657Z,34.78
2022-08-23T17:08:04.574Z,37.21
2022-08-23T17:10:35.691Z,35.97
2022-08-23T17:13:04.283Z,35.83
2022-08-23T17:15:35.095Z,36.98
2022-08-23T17:18:03.300Z,36.77
2022-08-23T17:20:33.134Z,36.92
2022-08-23T17:23:05.541Z,36.78
2022-08-23T17:25:34.608Z,36.75
2022-08-23T17:28:04.568Z,37.37
2022-08-23T17:30:33.314Z,37.27
2022-08-23T17:33:01.896Z,37.48
2022-08-23T17:35:34.511Z,38.77
2022-08-23T17:38:03.658Z,40.87
2022-08-23T17:40:35.459Z,40.03
2022-08-23T17:43:04.541Z,38.49
2022-08-23T17:45:35.413Z,39.70
2022-08-23T17:48:09.362Z,41.81
2022-08-23T17:50:38.073Z,40.46
2022-08-23T17:53:06.686Z,40.29
2022-08-23T17:55:35.891Z,40.19
2022-08-23T17:58:05.349Z,43.04
2022-08-23T18:00:34.940Z,41.97
2022-08-23T18:03:03.632Z,43.03
2022-08-23T18:05:34.928Z,42.59
2022-08-23T18:08:03.234Z,45.02
2022-08-23T18:10:32.209Z,46.58
2022-08-23T18:13:02.460Z,45.47
2022-08-23T18:15:31.474Z,45.51
2022-08-23T18:18:00.143Z,47.39
2022-08-23T18:20:29.149Z,46.61
2022-08-23T18:22:57.725Z,47.66
2022-08-23T18:25:26.146Z,48.76
2022-08-23T18:28:11.050Z,47.39
2022-08-23T18:30:52.660Z,48.31
2022-08-23T18:33:21.297Z,50.83
2022-08-23T18:35:53.893Z,47.50
2022-08-23T18:38:21.930Z,47.61
2022-08-23T18:40:51.556Z,46.73
2022-08-23T18:43:23.669Z,46.65
2022-08-23T18:45:53.787Z,48.09
2022-08-23T18:48:23.476Z,47.97
2022-08-23T18:50:52.584Z,48.14
2022-08-23T18:53:21.235Z,47.75
2022-08-23T18:55:51.582Z,48.10
2022-08-23T18:58:21.001Z,49.78
2022-08-23T19:00:49.642Z,50.17
2022-08-23T19:03:19.153Z,51.77
2022-08-23T19:05:47.687Z,52.04
2022-08-23T19:08:16.138Z,52.51
2022-08-23T19:10:46.309Z,52.88
2022-08-23T19:13:15.194Z,56.51
2022-08-23T19:15:43.692Z,56.43
2022-08-23T19:18:12.504Z,55.74
2022-08-23T19:20:41.381Z,55.37
2022-08-23T19:23:10.104Z,56.42
2022-08-23T19:25:39.751Z,58.59
2022-08-23T19:28:08.162Z,59.08
2022-08-23T19:30:36.973Z,58.54
2022-08-23T19:33:05.960Z,60.53
2022-08-23T19:35:35.599Z,60.03
2022-08-23T19:38:04.966Z,61.17
2022-08-23T19:40:33.902Z,60.70
2022-08-23T19:43:02.499Z,61.71
2022-08-23T19:45:31.979Z,61.63
2022-08-23T19:48:01.170Z,60.86
2022-08-23T19:50:29.988Z,61.85
2022-08-23T19:52:58.744Z,62.04
2022-08-23T19:55:28.530Z,61.02
2022-08-23T19:57:57.461Z,61.67
2022-08-23T20:00:26.103Z,62.22
2022-08-23T20:02:54.917Z,61.50
2022-08-23T20:05:23.780Z,62.73
2022-08-23T20:07:52.690Z,62.41
2022-08-23T20:10:22.016Z,63.52
2022-08-23T20:12:51.890Z,63.75
2022-08-23T20:15:20.881Z,64.62
2022-08-23T20:17:50.628Z,64.43
2022-08-23T20:20:20.088Z,65.21
2022-08-23T20:23:06.911Z,66.18
2022-08-23T20:25:35.254Z,65.25
2022-08-23T20:28:08.862Z,65.91
2022-08-23T20:30:37.376Z,65.89
2022-08-23T20:33:06.161Z,66.69
2022-08-23T20:35:36.561Z,66.84
2022-08-23T20:38:06.272Z,66.80
2022-08-23T20:40:37.962Z,68.98
2022-08-23T20:43:07.047Z,68.08
2022-08-23T20:45:37.101Z,68.73
2022-08-23T20:48:08.522Z,70.05
2022-08-23T20:50:39.729Z,69.22
2022-08-23T20:53:14.109Z,71.59
2022-08-23T20:55:43.256Z,71.64
2022-08-23T20:58:12.147Z,70.69
2022-08-23T21:00:42.402Z,71.88
2022-08-23T21:03:10.951Z,73.35
2022-08-23T21:05:39.931Z,72.79
2022-08-23T21:08:12.938Z,72.02
2022-08-23T21:10:45.047Z,73.21
2022-08-23T21:13:13.768Z,72.11
2022-08-23T21:15:43.124Z,71.32
2022-08-23T21:18:12.089Z,71.24
2022-08-23T21:20:41.849Z,72.30
2022-08-23T21:23:10.346Z,73.32
2022-08-23T21:25:38.424Z,72.55
2022-08-23T21:28:07.386Z,72.67
2022-08-23T21:30:38.295Z,72.08
2022-08-23T21:33:09.219Z,73.88
2022-08-23T21:35:37.968Z,73.66
2022-08-23T21:38:06.748Z,72.94
2022-08-23T21:40:35.264Z,73.25
2022-08-23T21:43:04.723Z,73.67
2022-08-23T21:45:33.761Z,73.94
2022-08-23T21:48:03.200Z,73.92
2022-08-23T21:50:33.878Z,73.80
2022-08-23T21:53:08.844Z,73.48
2022-08-23T21:55:41.020Z,74.27
2022-08-23T21:58:11.983Z,75.69
2022-08-23T22:00:42.423Z,75.65
2022-08-23T22:03:12.891Z,74.01
2022-08-23T22:05:45.611Z,75.05
2022-08-23T22:08:15.128Z,75.77
2022-08-23T22:10:57.300Z,75.26
2022-08-23T22:13:30.677Z,74.96
2022-08-23T22:16:03.059Z,75.63
2022-08-23T22:18:32.821Z,74.75
2022-08-23T22:21:02.646Z,74.70
2022-08-23T22:23:33.456Z,74.12
2022-08-23T22:26:02.349Z,74.55
2022-08-23T22:28:32.561Z,74.47
2022-08-23T22:31:02.113Z,75.20
2022-08-23T22:33:30.721Z,76.02
2022-08-23T22:36:06.620Z,77.43
2022-08-23T22:38:35.095Z,77.77
2022-08-23T22:41:04.415Z,78.55
2022-08-23T22:43:32.768Z,79.55
2022-08-23T22:46:03.049Z,78.93
2022-08-23T22:48:31.906Z,78.77
2022-08-23T22:51:31.453Z,79.17
2022-08-23T22:54:02.466Z,80.25
2022-08-23T22:56:38.236Z,77.16
2022-08-23T22:59:08.052Z,77.14
2022-08-23T23:01:40.509Z,77.94
2022-08-23T23:04:10.461Z,78.79
2022-08-23T23:06:39.086Z,77.81
2022-08-23T23:09:08.796Z,77.54
2022-08-23T23:11:40.332Z,78.73
2022-08-23T23:14:08.778Z,78.72
2022-08-23T23:16:37.181Z,78.95
2022-08-23T23:19:24.655Z,78.75
2022-08-23T23:21:55.304Z,79.02
2022-08-23T23:24:26.113Z,79.73
2022-08-23T23:26:55.111Z,80.02
2022-08-23T23:30:04.813Z,80.20
2022-08-23T23:32:54.118Z,82.04
2022-08-23T23:35:41.641Z,81.03
2022-08-23T23:38:21.416Z,81.60
2022-08-23T23:40:57.052Z,82.52
2022-08-23T23:43:44.965Z,81.27
2022-08-23T23:46:44.335Z,81.99
2022-08-23T23:49:14.912Z,82.63
2022-08-23T23:51:43.209Z,81.60
2022-08-23T23:54:15.253Z,82.37
2022-08-23T23:56:46.976Z,82.98
2022-08-23T23:59:15.893Z,82.20
